Time;durP1;ratioP1;P1;durP2;ratioP2;P2;SDS_P1;SDS_P2;PMS_P1;PMS_P2;Temp;Humidity;BMP_temperature;BMP_pressure;BME280_temperature;BME280_humidity;BME280_pressure;Samples;Min_cycle;Max_cycle;Signal;HPM_P1;HPM_P2
2022/11/04 00:01:50;;;;;;;2.00;1.90;;;17.30;61.40;;;;;;5049416;28;20447;-59
2022/11/04 00:04:18;;;;;;;1.90;1.67;;;17.60;61.90;;;;;;5047849;28;20455;-59
2022/11/04 00:06:44;;;;;;;2.10;1.90;;;17.60;60.80;;;;;;5050337;28;20848;-59
2022/11/04 00:09:13;;;;;;;3.10;2.37;;;17.60;60.50;;;;;;5046331;28;20487;-59
2022/11/04 00:14:23;;;;;;;3.53;1.83;;;17.80;60.60;;;;;;5048410;28;20453;-60
2022/11/04 00:30:30;;;;;;;2.60;2.30;;;18.50;59.80;;;;;;5046002;28;20462;-59
2022/11/04 00:35:39;;;;;;;1.50;1.40;;;18.50;58.50;;;;;;5051484;28;20200;-59
2022/11/04 00:38:05;;;;;;;1.40;1.30;;;18.30;58.00;;;;;;5048642;28;20439;-59
2022/11/04 00:40:30;;;;;;;1.43;1.33;;;18.00;58.00;;;;;;5046723;28;20276;-58
2022/11/04 00:42:56;;;;;;;1.27;1.17;;;17.90;58.50;;;;;;5047752;28;20207;-57
2022/11/04 00:45:22;;;;;;;1.43;1.20;;;17.80;58.40;;;;;;5050634;28;20639;-58
2022/11/04 00:47:47;;;;;;;1.30;1.20;;;17.80;58.50;;;;;;5049012;28;20196;-57
2022/11/04 00:50:13;;;;;;;1.73;1.30;;;17.70;58.80;;;;;;5048181;28;20220;-57
2022/11/04 00:52:38;;;;;;;1.40;1.30;;;17.70;58.90;;;;;;5049800;28;20197;-56
2022/11/04 00:55:04;;;;;;;2.50;1.53;;;17.50;59.00;;;;;;5047091;28;20208;-56
2022/11/04 00:57:30;;;;;;;1.67;1.57;;;17.50;59.40;;;;;;5047019;28;20555;-57
2022/11/04 00:59:56;;;;;;;2.07;1.30;;;17.40;59.60;;;;;;5044846;28;20447;-56
2022/11/04 01:02:22;;;;;;;1.73;1.40;;;17.20;59.80;;;;;;5049655;28;20446;-58
2022/11/04 01:04:47;;;;;;;1.60;1.10;;;17.10;60.20;;;;;;5047540;28;20254;-57
2022/11/04 01:07:13;;;;;;;1.60;1.40;;;17.00;60.40;;;;;;5051183;28;20338;-58
2022/11/04 01:09:39;;;;;;;1.40;1.30;;;17.00;60.40;;;;;;5047429;28;20319;-57
2022/11/04 01:12:04;;;;;;;2.00;1.13;;;17.00;60.60;;;;;;5047773;28;20199;-57
2022/11/04 01:14:30;;;;;;;1.60;1.47;;;16.90;60.90;;;;;;5047566;28;20604;-58
2022/11/04 01:16:55;;;;;;;1.30;1.20;;;16.90;60.70;;;;;;5047574;28;20287;-57
2022/11/04 01:19:21;;;;;;;1.23;1.13;;;17.00;60.80;;;;;;5046951;28;20200;-57
2022/11/04 01:21:50;;;;;;;2.20;1.50;;;16.90;60.80;;;;;;5049330;28;20250;-58
2022/11/04 01:24:16;;;;;;;2.03;1.23;;;16.90;60.90;;;;;;5049654;28;20235;-58
2022/11/04 01:26:41;;;;;;;1.30;1.20;;;17.00;61.00;;;;;;5047460;28;20479;-56
2022/11/04 01:29:07;;;;;;;1.53;1.33;;;16.80;61.30;;;;;;5049785;28;20646;-57
2022/11/04 01:31:32;;;;;;;1.53;1.40;;;16.70;61.50;;;;;;5048961;28;20225;-56
2022/11/04 01:33:58;;;;;;;2.13;1.40;;;16.70;61.50;;;;;;5048038;28;20193;-57
2022/11/04 01:36:25;;;;;;;1.80;1.30;;;16.70;61.80;;;;;;5048825;28;20196;-57
2022/11/04 01:38:51;;;;;;;1.27;1.17;;;16.70;61.80;;;;;;5047535;28;20494;-57
2022/11/04 01:41:19;;;;;;;1.50;1.40;;;16.80;61.60;;;;;;5047724;28;20889;-57
2022/11/04 01:43:50;;;;;;;1.00;1.00;;;16.70;61.20;;;;;;5048362;28;20440;-56
2022/11/04 01:46:27;;;;;;;0.87;0.87;;;16.30;61.90;;;;;;5046097;28;20458;-57
2022/11/04 01:49:03;;;;;;;6.63;1.30;;;16.00;62.60;;;;;;5047947;28;20470;-56
2022/11/04 01:51:33;;;;;;;3.23;1.40;;;15.70;63.50;;;;;;5046643;28;20519;-56
2022/11/04 01:54:00;;;;;;;0.83;0.80;;;15.40;64.50;;;;;;5049998;28;20541;-56
2022/11/04 01:56:27;;;;;;;1.10;0.97;;;15.60;64.60;;;;;;5047685;28;20463;-56
2022/11/04 01:58:57;;;;;;;1.37;1.20;;;15.70;64.40;;;;;;5047434;28;20558;-58
2022/11/04 02:01:23;;;;;;;1.00;0.90;;;15.90;63.40;;;;;;5049634;28;20442;-54
2022/11/04 02:06:46;;;;;;;2.40;0.90;;;16.10;62.80;;;;;;5050121;28;20250;-56
2022/11/04 02:09:12;;;;;;;1.00;0.90;;;16.00;62.80;;;;;;5042965;28;20692;-55
2022/11/04 02:14:22;;;;;;;1.43;1.00;;;16.10;62.80;;;;;;5043764;28;22050;-57
2022/11/04 02:16:48;;;;;;;1.30;1.07;;;16.00;62.70;;;;;;5047379;28;20451;-56
2022/11/04 02:19:33;;;;;;;1.27;1.17;;;16.20;62.50;;;;;;5046909;28;20211;-57
2022/11/04 02:22:07;;;;;;;1.33;1.00;;;16.20;62.40;;;;;;5046306;28;20454;-57
2022/11/04 02:25:11;;;;;;;1.13;0.87;;;16.20;62.30;;;;;;5046238;28;20439;-57
2022/11/04 02:27:59;;;;;;;1.20;0.93;;;16.30;62.30;;;;;;5040520;28;20794;-57
2022/11/04 02:30:27;;;;;;;1.20;1.10;;;16.20;62.10;;;;;;5050270;28;20478;-57
2022/11/04 02:33:16;;;;;;;1.87;1.03;;;16.30;62.00;;;;;;5050242;28;20432;-57
2022/11/04 02:35:47;;;;;;;1.13;1.03;;;16.50;61.70;;;;;;5037397;28;20504;-56
2022/11/04 02:38:29;;;;;;;1.40;1.30;;;16.60;61.30;;;;;;5049645;28;20438;-56
2022/11/04 02:41:20;;;;;;;2.30;1.07;;;16.60;61.10;;;;;;5052356;28;20454;-56
2022/11/04 02:44:22;;;;;;;1.40;1.13;;;16.70;61.30;;;;;;5043633;28;20549;-56
2022/11/04 02:47:11;;;;;;;1.50;1.00;;;16.70;60.90;;;;;;5047217;28;20485;-56
2022/11/04 02:49:56;;;;;;;2.37;1.43;;;16.50;60.40;;;;;;5043358;28;20478;-57
2022/11/04 02:52:53;;;;;;;1.43;0.90;;;16.30;59.70;;;;;;5047199;28;20527;-56
2022/11/04 02:55:29;;;;;;;2.40;0.97;;;16.20;59.00;;;;;;5049927;28;20507;-55
2022/11/04 02:57:58;;;;;;;0.90;0.80;;;15.90;59.30;;;;;;5047633;28;20447;-56
2022/11/04 03:00:24;;;;;;;1.10;1.00;;;15.90;59.50;;;;;;5048035;28;20453;-55
2022/11/04 03:03:05;;;;;;;1.20;1.10;;;16.00;59.20;;;;;;5048644;28;20593;-56
2022/11/04 03:05:35;;;;;;;1.00;0.90;;;16.00;59.00;;;;;;5057096;28;20865;-56
2022/11/04 03:08:10;;;;;;;0.97;0.80;;;16.10;58.70;;;;;;5050577;28;20519;-56
2022/11/04 03:10:40;;;;;;;1.30;1.20;;;16.20;58.70;;;;;;5051877;28;20442;-57
2022/11/04 03:13:14;;;;;;;0.70;0.70;;;16.30;58.40;;;;;;5048478;28;20454;-56
2022/11/04 03:15:47;;;;;;;4.50;1.10;;;16.20;58.10;;;;;;5052532;28;20439;-56
2022/11/04 03:18:21;;;;;;;0.90;0.90;;;16.20;58.20;;;;;;5045097;28;20443;-56
2022/11/04 03:20:48;;;;;;;1.03;0.67;;;16.30;58.10;;;;;;5048961;28;20505;-55
2022/11/04 03:23:14;;;;;;;1.03;0.90;;;16.30;57.90;;;;;;5048184;28;20503;-56
2022/11/04 03:25:44;;;;;;;1.83;1.37;;;16.40;57.90;;;;;;5052112;28;20599;-57
2022/11/04 03:28:24;;;;;;;1.30;1.20;;;16.40;57.60;;;;;;5052418;28;20593;-56
2022/11/04 03:30:55;;;;;;;1.13;0.80;;;16.50;57.60;;;;;;5048331;28;20431;-56
2022/11/04 03:33:42;;;;;;;2.20;1.10;;;16.40;57.50;;;;;;5048217;28;20516;-56
2022/11/04 03:36:08;;;;;;;3.13;1.10;;;16.40;57.60;;;;;;5050681;28;20439;-56
2022/11/04 03:38:35;;;;;;;1.20;1.10;;;16.40;57.50;;;;;;5048758;28;20543;-56
2022/11/04 03:41:02;;;;;;;1.10;0.90;;;16.50;57.60;;;;;;5051267;28;20435;-55
2022/11/04 03:43:29;;;;;;;1.50;1.10;;;16.50;57.30;;;;;;5052430;28;20929;-56
2022/11/04 03:45:55;;;;;;;2.90;1.00;;;16.50;57.20;;;;;;5048568;28;20470;-55
2022/11/04 03:48:22;;;;;;;1.00;0.93;;;16.50;57.40;;;;;;5050104;28;20946;-56
2022/11/04 03:50:49;;;;;;;1.20;1.10;;;16.50;57.50;;;;;;5048683;28;20196;-56
2022/11/04 03:53:20;;;;;;;2.17;0.97;;;16.50;57.60;;;;;;5051268;28;20450;-56
2022/11/04 03:55:54;;;;;;;2.00;1.37;;;16.50;57.70;;;;;;5052555;28;20455;-56
2022/11/04 03:58:30;;;;;;;1.00;0.90;;;16.50;57.70;;;;;;5050566;28;20477;-56
2022/11/04 04:01:33;;;;;;;1.50;1.10;;;16.50;57.60;;;;;;5047688;28;20937;-56
2022/11/04 04:04:12;;;;;;;1.43;1.10;;;16.40;57.70;;;;;;5050538;28;20453;-56
2022/11/04 04:06:40;;;;;;;1.30;1.20;;;16.40;57.70;;;;;;5050780;28;20529;-56
2022/11/04 04:09:34;;;;;;;2.00;1.20;;;16.40;57.90;;;;;;5050091;28;20536;-56
2022/11/04 04:12:17;;;;;;;1.10;1.10;;;16.30;58.10;;;;;;5048957;28;20456;-56
2022/11/04 04:14:50;;;;;;;1.33;1.23;;;16.30;58.30;;;;;;5050042;28;20449;-56
2022/11/04 04:17:23;;;;;;;1.10;0.93;;;16.30;58.30;;;;;;5048098;28;20439;-57
2022/11/04 04:19:58;;;;;;;0.93;0.77;;;16.30;58.20;;;;;;5047347;28;20434;-57
2022/11/04 04:22:38;;;;;;;2.03;0.97;;;16.30;58.00;;;;;;5044962;28;20455;-55
2022/11/04 04:27:54;;;;;;;1.63;0.80;;;16.30;58.20;;;;;;5048853;28;20458;-56
2022/11/04 04:30:20;;;;;;;0.93;0.80;;;16.20;58.40;;;;;;5049244;28;20566;-55
2022/11/04 04:32:53;;;;;;;0.97;0.97;;;16.20;58.70;;;;;;5048727;28;20533;-56
2022/11/04 04:35:42;;;;;;;2.00;1.23;;;16.10;58.70;;;;;;5049301;28;20185;-56
2022/11/04 04:47:18;;;;;;;4.20;2.83;;;16.00;59.80;;;;;;5049595;28;20446;-56
2022/11/04 04:49:55;;;;;;;1.70;1.60;;;16.00;60.10;;;;;;5047587;28;20513;-56
2022/11/04 04:52:22;;;;;;;1.73;1.60;;;16.00;60.30;;;;;;5049070;28;20450;-55
2022/11/04 04:54:48;;;;;;;2.50;1.40;;;16.00;60.10;;;;;;5050222;28;20447;-56
2022/11/04 04:57:13;;;;;;;1.87;1.50;;;16.00;59.90;;;;;;5047810;28;20516;-56
2022/11/04 04:59:39;;;;;;;1.20;1.10;;;15.90;59.90;;;;;;5046912;28;20197;-57
2022/11/04 05:02:04;;;;;;;1.40;1.20;;;15.90;59.80;;;;;;5049019;28;20193;-55
2022/11/04 05:04:30;;;;;;;2.33;1.37;;;15.90;59.70;;;;;;5047632;28;20228;-57
2022/11/04 05:06:56;;;;;;;1.30;1.20;;;15.90;59.80;;;;;;5050404;28;20666;-55
2022/11/04 05:09:21;;;;;;;1.90;1.27;;;15.90;59.90;;;;;;5044755;28;20232;-56
2022/11/04 05:11:47;;;;;;;2.17;1.70;;;15.90;60.00;;;;;;5048376;28;20193;-56
2022/11/04 05:14:12;;;;;;;3.20;1.40;;;15.90;60.10;;;;;;5044418;28;20204;-56
2022/11/04 05:16:38;;;;;;;1.77;1.40;;;15.90;60.10;;;;;;5047279;28;20208;-56
2022/11/04 05:19:03;;;;;;;1.60;1.50;;;15.80;60.00;;;;;;5049046;28;20194;-56
2022/11/04 05:21:29;;;;;;;2.03;1.50;;;15.80;60.20;;;;;;5047886;28;20193;-56
2022/11/04 05:23:54;;;;;;;3.80;1.57;;;15.70;60.40;;;;;;5048306;28;20203;-56
2022/11/04 05:26:20;;;;;;;1.70;1.60;;;15.70;60.50;;;;;;5048729;28;20277;-57
2022/11/04 05:28:46;;;;;;;1.67;1.30;;;15.70;60.50;;;;;;5048964;28;20220;-56
2022/11/04 05:31:11;;;;;;;1.57;1.47;;;15.60;60.30;;;;;;5049222;28;20241;-55
2022/11/04 05:33:37;;;;;;;1.27;1.20;;;15.60;60.30;;;;;;5048762;28;20201;-57
2022/11/04 05:36:11;;;;;;;2.30;1.57;;;15.50;60.60;;;;;;5051509;28;20193;-54
2022/11/04 05:38:37;;;;;;;1.50;1.37;;;15.50;60.90;;;;;;5046416;28;20704;-56
2022/11/04 05:41:04;;;;;;;1.97;1.70;;;15.40;60.80;;;;;;5047944;28;20447;-56
2022/11/04 05:43:29;;;;;;;2.20;2.00;;;15.40;61.00;;;;;;5048126;28;20191;-55
2022/11/04 05:45:57;;;;;;;1.70;1.60;;;15.40;61.10;;;;;;5049211;28;20435;-56
2022/11/04 05:48:23;;;;;;;7.93;1.80;;;15.40;61.30;;;;;;5047101;28;20188;-57
2022/11/04 05:50:48;;;;;;;7.87;4.03;;;15.40;61.40;;;;;;5050501;28;20514;-56
2022/11/04 05:53:14;;;;;;;4.23;3.83;;;15.40;61.60;;;;;;5048379;28;20192;-56
2022/11/04 05:55:40;;;;;;;4.10;3.10;;;15.40;61.70;;;;;;5046198;28;20200;-57
2022/11/04 05:58:05;;;;;;;4.60;3.20;;;15.40;61.70;;;;;;5046707;28;20254;-57
2022/11/04 06:00:31;;;;;;;13.63;5.60;;;15.40;61.90;;;;;;5049639;28;20200;-56
2022/11/04 06:02:56;;;;;;;12.00;5.00;;;15.40;61.80;;;;;;5046472;28;20283;-55
2022/11/04 06:05:22;;;;;;;9.50;4.77;;;15.40;61.80;;;;;;5047865;28;20254;-55
2022/11/04 06:07:48;;;;;;;11.33;5.50;;;15.40;61.90;;;;;;5049624;28;20196;-56
2022/11/04 06:10:14;;;;;;;5.80;4.30;;;15.40;62.00;;;;;;5048248;28;20829;-55
2022/11/04 06:12:39;;;;;;;5.40;3.63;;;15.40;62.00;;;;;;5047859;28;20618;-56
2022/11/04 06:15:06;;;;;;;6.37;3.27;;;15.40;62.00;;;;;;5046261;28;20236;-56
2022/11/04 06:17:31;;;;;;;5.17;2.73;;;15.30;61.90;;;;;;5048469;28;20223;-59
2022/11/04 06:19:57;;;;;;;4.00;2.70;;;15.30;62.90;;;;;;5045979;28;20925;-58
2022/11/04 06:22:23;;;;;;;4.00;2.47;;;15.40;64.10;;;;;;5049613;28;20203;-59
2022/11/04 06:24:48;;;;;;;3.00;2.17;;;15.60;64.60;;;;;;5042408;28;20236;-59
2022/11/04 06:27:14;;;;;;;3.00;2.17;;;15.70;64.40;;;;;;5048916;28;20192;-59
2022/11/04 06:29:40;;;;;;;2.90;2.57;;;15.70;63.20;;;;;;5045730;28;20220;-58
2022/11/04 06:32:12;;;;;;;6.77;3.20;;;15.50;62.90;;;;;;5044607;28;20283;-59
2022/11/04 06:34:38;;;;;;;5.27;3.10;;;15.50;63.70;;;;;;5043641;28;20445;-58
2022/11/04 06:37:04;;;;;;;3.20;2.13;;;15.60;63.70;;;;;;5041793;28;20443;-59
2022/11/04 06:39:29;;;;;;;2.90;1.77;;;15.70;63.40;;;;;;5043236;28;20851;-59
2022/11/04 06:41:55;;;;;;;2.50;2.30;;;15.80;62.90;;;;;;5043499;28;20678;-59
2022/11/04 06:44:21;;;;;;;1.87;1.67;;;15.80;62.20;;;;;;5045692;28;20184;-59
2022/11/04 06:46:47;;;;;;;2.77;1.70;;;15.70;61.50;;;;;;5048605;28;20309;-59
2022/11/04 06:49:16;;;;;;;1.83;1.73;;;15.80;61.40;;;;;;5047770;28;20749;-59
2022/11/04 06:51:42;;;;;;;3.53;1.80;;;15.80;60.80;;;;;;5046730;28;20191;-59
2022/11/04 06:54:08;;;;;;;3.70;1.83;;;15.80;61.50;;;;;;5049471;28;20447;-59
2022/11/04 06:56:33;;;;;;;2.00;1.87;;;15.90;61.30;;;;;;5046093;28;20558;-59
2022/11/04 06:58:59;;;;;;;4.83;2.03;;;16.00;60.90;;;;;;5046312;28;20197;-59
2022/11/04 07:01:28;;;;;;;3.67;2.43;;;16.00;60.60;;;;;;5046287;28;20605;-59
2022/11/04 07:03:55;;;;;;;3.33;2.07;;;16.10;60.40;;;;;;5047086;28;20193;-57
2022/11/04 07:06:22;;;;;;;2.67;2.23;;;16.10;59.90;;;;;;5048908;28;20451;-57
2022/11/04 07:08:48;;;;;;;3.37;2.40;;;16.20;59.90;;;;;;5046003;28;20487;-57
2022/11/04 07:11:15;;;;;;;3.77;2.70;;;16.10;60.00;;;;;;5050359;28;20553;-57
2022/11/04 07:13:48;;;;;;;2.80;2.53;;;16.20;59.60;;;;;;5050042;28;20439;-59
2022/11/04 07:16:34;;;;;;;3.33;2.33;;;16.20;59.60;;;;;;5050308;28;20450;-59
2022/11/04 07:19:00;;;;;;;2.97;2.47;;;16.20;59.40;;;;;;5047848;28;20808;-59
2022/11/04 07:21:26;;;;;;;2.90;2.43;;;16.20;59.40;;;;;;5050937;28;20446;-57
2022/11/04 07:23:52;;;;;;;3.10;2.70;;;16.30;59.70;;;;;;5048248;28;20223;-57
2022/11/04 07:26:17;;;;;;;5.00;3.33;;;16.40;59.60;;;;;;5049406;28;20466;-57
2022/11/04 07:28:43;;;;;;;4.80;4.30;;;16.40;59.00;;;;;;5050944;28;20716;-57
2022/11/04 07:31:11;;;;;;;4.20;3.40;;;16.30;58.70;;;;;;5050077;28;20570;-57
2022/11/04 07:33:36;;;;;;;7.30;2.83;;;16.30;59.00;;;;;;5048558;28;20200;-57
2022/11/04 07:36:04;;;;;;;3.13;2.57;;;16.30;59.20;;;;;;5050954;28;20791;-58
2022/11/04 07:38:30;;;;;;;2.20;2.00;;;16.30;59.40;;;;;;5050034;28;20618;-57
2022/11/04 07:40:57;;;;;;;3.37;2.10;;;16.40;58.80;;;;;;5048568;28;20451;-57
2022/11/04 07:43:22;;;;;;;4.37;2.60;;;16.40;58.90;;;;;;5046611;28;20275;-57
2022/11/04 07:45:59;;;;;;;3.67;3.23;;;16.30;59.10;;;;;;5053775;28;20939;-57
2022/11/04 07:48:24;;;;;;;3.83;3.13;;;16.40;59.00;;;;;;5049304;28;20237;-57
2022/11/04 07:50:54;;;;;;;4.70;3.43;;;16.40;58.70;;;;;;5053697;28;20911;-57
2022/11/04 07:53:19;;;;;;;2.70;2.23;;;16.50;58.30;;;;;;5053378;28;20678;-57
2022/11/04 07:55:48;;;;;;;4.43;2.20;;;16.50;58.60;;;;;;5053533;28;20506;-57
2022/11/04 07:58:13;;;;;;;4.00;3.60;;;16.50;58.80;;;;;;5041499;28;20930;-57
2022/11/04 08:00:40;;;;;;;4.20;3.20;;;16.60;58.80;;;;;;5047113;28;20468;-57
2022/11/04 08:03:05;;;;;;;7.40;4.53;;;16.70;58.60;;;;;;5046549;28;20196;-57
2022/11/04 08:05:31;;;;;;;12.00;10.07;;;16.70;58.40;;;;;;5053344;28;20430;-57
2022/11/04 08:07:56;;;;;;;10.13;7.83;;;16.80;58.30;;;;;;5051280;28;20196;-57
2022/11/04 08:10:22;;;;;;;4.73;3.80;;;16.80;58.20;;;;;;5053080;28;20310;-57
2022/11/04 08:12:49;;;;;;;6.83;4.30;;;16.90;58.00;;;;;;5051092;28;20197;-57
2022/11/04 08:15:15;;;;;;;3.10;2.80;;;16.90;58.20;;;;;;5052703;28;20702;-57
2022/11/04 08:17:40;;;;;;;3.97;2.90;;;16.90;58.30;;;;;;5051480;28;20488;-57
2022/11/04 08:20:08;;;;;;;3.27;2.77;;;16.90;58.60;;;;;;5048502;28;20276;-57
2022/11/04 08:22:34;;;;;;;3.17;2.87;;;16.90;58.50;;;;;;5044796;28;20246;-57
2022/11/04 08:24:59;;;;;;;3.93;2.73;;;17.00;58.50;;;;;;5045499;28;20483;-57
2022/11/04 08:27:25;;;;;;;3.97;2.90;;;17.00;58.20;;;;;;5052590;28;20204;-57
2022/11/04 08:29:51;;;;;;;4.20;3.70;;;17.00;58.10;;;;;;5050158;28;20236;-57
2022/11/04 08:32:17;;;;;;;5.30;2.93;;;17.00;58.20;;;;;;5050085;28;20711;-57
2022/11/04 08:34:43;;;;;;;2.27;2.07;;;16.90;58.10;;;;;;5047332;28;20196;-57
2022/11/04 08:37:11;;;;;;;2.83;2.47;;;16.90;58.70;;;;;;5047943;28;20450;-57
2022/11/04 08:39:37;;;;;;;6.30;3.00;;;17.00;59.00;;;;;;5059812;28;20207;-57
2022/11/04 08:42:04;;;;;;;3.10;1.73;;;16.90;58.70;;;;;;5050110;28;20507;-57
2022/11/04 08:44:32;;;;;;;4.10;2.17;;;16.70;58.30;;;;;;5045663;28;20443;-57
2022/11/04 08:46:57;;;;;;;3.87;2.63;;;16.70;58.50;;;;;;5051389;28;20439;-57
2022/11/04 08:49:23;;;;;;;2.50;2.23;;;16.80;58.70;;;;;;5048683;28;20508;-57
2022/11/04 08:51:56;;;;;;;2.90;2.60;;;16.80;58.80;;;;;;5047484;28;20250;-57
2022/11/04 08:54:22;;;;;;;3.00;2.80;;;16.90;59.00;;;;;;5051080;28;20242;-57
2022/11/04 08:56:48;;;;;;;2.87;2.10;;;16.90;59.30;;;;;;5050870;28;20855;-57
2022/11/04 08:59:14;;;;;;;2.50;1.63;;;17.00;59.20;;;;;;5047612;28;20474;-57
2022/11/04 09:01:41;;;;;;;1.80;1.70;;;17.10;58.70;;;;;;5048567;28;20188;-57
2022/11/04 09:04:06;;;;;;;6.80;2.10;;;17.20;58.60;;;;;;5048580;28;20204;-57
2022/11/04 09:06:38;;;;;;;2.43;1.90;;;17.20;58.90;;;;;;5041561;28;20954;-57
2022/11/04 09:09:06;;;;;;;2.83;2.27;;;17.10;58.90;;;;;;5050468;28;20316;-57
2022/11/04 09:11:35;;;;;;;3.43;2.17;;;17.10;58.70;;;;;;5046484;28;20439;-57
2022/11/04 09:14:01;;;;;;;2.30;2.10;;;17.00;58.30;;;;;;5048360;28;20496;-57
2022/11/04 09:16:29;;;;;;;2.90;2.07;;;17.00;58.70;;;;;;5049070;28;20439;-57
2022/11/04 09:18:56;;;;;;;4.57;3.50;;;17.10;59.10;;;;;;5048125;28;20812;-56
2022/11/04 09:21:23;;;;;;;4.50;2.90;;;17.10;58.60;;;;;;5049237;28;20451;-57
2022/11/04 09:23:48;;;;;;;3.70;3.13;;;17.10;58.70;;;;;;5049550;28;20455;-57
2022/11/04 09:26:16;;;;;;;2.70;2.50;;;17.10;58.90;;;;;;5050612;28;20954;-56
2022/11/04 09:28:42;;;;;;;2.60;2.03;;;16.90;58.20;;;;;;5048779;28;20307;-56
2022/11/04 09:31:18;;;;;;;2.17;1.97;;;16.90;58.70;;;;;;5044351;28;20573;-57
2022/11/04 09:33:44;;;;;;;4.23;2.77;;;16.70;59.50;;;;;;5041058;28;20450;-57
2022/11/04 09:36:11;;;;;;;3.00;2.50;;;16.60;60.20;;;;;;5047211;28;20946;-57
2022/11/04 09:38:38;;;;;;;2.90;2.20;;;16.70;59.50;;;;;;5032387;28;20439;-56
2022/11/04 09:41:25;;;;;;;3.20;2.30;;;16.70;59.60;;;;;;5040775;28;20798;-57
2022/11/04 09:44:02;;;;;;;5.43;2.20;;;16.70;59.50;;;;;;5040463;28;20434;-57
2022/11/04 09:46:31;;;;;;;2.63;2.13;;;16.90;59.10;;;;;;5038618;28;20451;-57
2022/11/04 09:48:59;;;;;;;2.80;2.50;;;17.00;59.40;;;;;;5035874;28;20852;-57
2022/11/04 09:51:26;;;;;;;2.80;2.10;;;17.10;59.10;;;;;;5038953;28;20435;-57
2022/11/04 09:53:56;;;;;;;5.07;2.10;;;17.30;58.60;;;;;;5049976;28;20446;-57
2022/11/04 09:56:36;;;;;;;4.63;2.23;;;17.30;58.70;;;;;;5038649;28;20454;-57
2022/11/04 09:59:03;;;;;;;2.30;2.00;;;17.20;58.30;;;;;;5040273;28;20518;-56
2022/11/04 10:01:59;;;;;;;3.83;1.83;;;17.20;58.10;;;;;;5041597;28;20939;-57
2022/11/04 10:04:51;;;;;;;3.50;1.60;;;17.20;57.80;;;;;;5044786;28;20458;-56
2022/11/04 10:07:40;;;;;;;2.43;1.77;;;17.10;56.80;;;;;;5035268;28;20833;-56
2022/11/04 10:10:14;;;;;;;4.53;1.60;;;16.80;57.80;;;;;;5042809;28;20985;-56
2022/11/04 10:12:51;;;;;;;1.60;1.50;;;16.90;58.30;;;;;;5051579;28;20422;-56
2022/11/04 10:15:38;;;;;;;1.97;1.87;;;17.00;57.90;;;;;;5046406;28;20957;-57
2022/11/04 10:18:19;;;;;;;2.10;1.60;;;17.00;57.90;;;;;;5047960;28;20954;-56
2022/11/04 10:20:44;;;;;;;1.67;1.53;;;16.90;57.10;;;;;;5047272;28;20504;-56
2022/11/04 10:23:25;;;;;;;1.70;1.27;;;17.00;57.40;;;;;;5045211;28;20451;-56
2022/11/04 10:26:18;;;;;;;1.47;1.30;;;17.20;56.00;;;;;;5039127;28;20311;-56
2022/11/04 10:28:53;;;;;;;2.03;1.10;;;17.20;55.50;;;;;;5038492;28;20848;-56
2022/11/04 10:31:19;;;;;;;2.20;1.30;;;17.30;54.30;;;;;;5041201;28;20458;-56
2022/11/04 10:33:49;;;;;;;2.27;1.20;;;17.20;55.00;;;;;;5043146;28;20491;-56
2022/11/04 10:36:16;;;;;;;1.10;1.00;;;17.40;53.70;;;;;;5045826;28;20668;-55
2022/11/04 10:38:45;;;;;;;1.47;1.37;;;17.60;53.80;;;;;;5041429;28;20513;-56
2022/11/04 10:41:22;;;;;;;4.50;1.10;;;17.80;52.80;;;;;;5038393;28;20454;-57
2022/11/04 10:44:09;;;;;;;2.27;1.20;;;17.50;52.60;;;;;;5049126;28;20512;-57
2022/11/04 10:46:43;;;;;;;2.63;1.03;;;17.40;52.20;;;;;;5044004;28;20838;-56
2022/11/04 10:49:33;;;;;;;2.43;1.13;;;17.40;52.50;;;;;;5044451;28;20509;-57
2022/11/04 10:51:59;;;;;;;2.40;1.30;;;17.70;51.90;;;;;;5052908;28;20443;-57
2022/11/04 10:54:26;;;;;;;2.67;1.50;;;18.00;52.00;;;;;;5054587;28;20771;-57
2022/11/04 10:56:54;;;;;;;1.33;0.87;;;18.30;51.80;;;;;;5051345;28;20698;-57
2022/11/04 10:59:49;;;;;;;1.20;1.10;;;18.50;50.40;;;;;;5048368;28;20439;-57
2022/11/04 11:02:15;;;;;;;3.03;1.07;;;18.40;49.60;;;;;;5047971;28;20451;-57
2022/11/04 11:04:40;;;;;;;2.40;1.20;;;18.60;49.80;;;;;;5050746;28;20845;-58
2022/11/04 11:07:10;;;;;;;2.20;1.17;;;18.70;49.60;;;;;;5052146;28;20224;-58
2022/11/04 11:09:47;;;;;;;2.77;1.50;;;18.80;48.80;;;;;;5038867;28;20577;-56
2022/11/04 11:12:13;;;;;;;5.13;1.53;;;19.00;49.00;;;;;;5047239;28;20431;-56
2022/11/04 11:14:40;;;;;;;1.43;1.00;;;19.00;48.70;;;;;;5050361;28;20443;-55
2022/11/04 11:17:15;;;;;;;2.30;1.20;;;19.00;48.50;;;;;;5052597;28;20296;-54
2022/11/04 11:20:04;;;;;;;2.10;1.47;;;19.00;48.60;;;;;;5053401;28;20987;-55
2022/11/04 11:22:41;;;;;;;2.10;1.13;;;19.10;48.90;;;;;;5052524;28;20483;-56
2022/11/04 11:25:24;;;;;;;3.00;1.30;;;19.20;48.90;;;;;;5051152;28;20559;-55
2022/11/04 11:27:53;;;;;;;3.50;1.50;;;19.10;48.90;;;;;;5052570;28;20449;-55
2022/11/04 11:30:40;;;;;;;2.60;1.33;;;19.10;48.40;;;;;;5048167;28;20496;-56
2022/11/04 11:33:17;;;;;;;4.53;1.63;;;19.10;48.20;;;;;;5046407;28;20462;-57
2022/11/04 11:36:03;;;;;;;7.00;2.00;;;18.90;48.30;;;;;;5046836;28;20430;-57
2022/11/04 11:38:32;;;;;;;4.17;1.60;;;18.80;48.80;;;;;;5048969;28;20447;-57
2022/11/04 11:41:09;;;;;;;4.40;1.80;;;18.70;49.20;;;;;;5048050;28;20485;-57
2022/11/04 11:43:41;;;;;;;6.20;2.83;;;18.60;49.30;;;;;;5046824;28;20447;-57
2022/11/04 11:46:08;;;;;;;2.63;1.83;;;18.20;49.40;;;;;;5043904;28;20435;-56
2022/11/04 11:48:50;;;;;;;1.60;1.20;;;18.30;50.00;;;;;;5050048;28;20952;-56
2022/11/04 11:51:28;;;;;;;2.90;1.13;;;18.50;49.70;;;;;;5053388;28;20442;-55
2022/11/04 11:54:16;;;;;;;2.50;1.17;;;18.50;49.30;;;;;;5049717;28;20446;-57
2022/11/04 11:56:53;;;;;;;3.67;2.07;;;18.50;49.10;;;;;;5051548;28;20554;-57
2022/11/04 11:59:24;;;;;;;3.53;1.50;;;18.70;49.70;;;;;;5047040;28;20449;-55
2022/11/04 12:01:56;;;;;;;4.27;1.73;;;18.70;49.30;;;;;;5046448;28;20871;-55
2022/11/04 12:04:21;;;;;;;2.40;1.70;;;18.80;48.70;;;;;;5044557;28;20442;-55
2022/11/04 12:07:08;;;;;;;6.03;1.57;;;18.80;48.60;;;;;;5039794;28;21059;-50
2022/11/04 12:09:49;;;;;;;3.90;1.43;;;18.80;49.00;;;;;;5047036;28;20212;-53
2022/11/04 12:12:23;;;;;;;2.50;1.47;;;18.70;49.30;;;;;;5044557;28;20585;-51
2022/11/04 12:14:56;;;;;;;2.53;1.20;;;18.60;49.20;;;;;;5051396;28;20529;-53
2022/11/04 12:17:53;;;;;;;3.17;1.83;;;18.60;49.20;;;;;;5049748;28;20817;-52
2022/11/04 12:20:43;;;;;;;2.67;1.67;;;18.40;49.30;;;;;;5050145;28;20478;-52
2022/11/04 12:23:09;;;;;;;3.20;1.27;;;18.50;49.60;;;;;;5047062;28;20446;-53
2022/11/04 12:25:35;;;;;;;6.50;1.70;;;18.50;49.70;;;;;;5049299;28;20565;-52
2022/11/04 12:28:16;;;;;;;6.37;1.63;;;18.50;49.60;;;;;;5050638;28;20200;-51
2022/11/04 12:31:04;;;;;;;3.00;1.30;;;18.40;49.70;;;;;;5050424;28;20683;-52
2022/11/04 12:33:51;;;;;;;2.17;1.47;;;18.30;49.50;;;;;;5052310;28;20999;-52
2022/11/04 12:36:45;;;;;;;4.60;1.17;;;18.50;50.00;;;;;;5049930;28;20459;-55
2022/11/04 12:39:24;;;;;;;2.20;1.00;;;18.60;49.00;;;;;;5040092;28;20451;-54
2022/11/04 12:42:01;;;;;;;2.77;1.40;;;18.80;48.70;;;;;;5047565;28;20443;-52
2022/11/04 12:44:41;;;;;;;2.93;1.17;;;18.80;48.60;;;;;;5051722;28;20447;-54
2022/11/04 12:47:28;;;;;;;2.33;1.00;;;18.80;47.90;;;;;;5050196;28;20954;-54
2022/11/04 12:50:13;;;;;;;2.80;1.60;;;18.60;47.90;;;;;;5050749;28;20483;-54
2022/11/04 12:53:01;;;;;;;3.27;1.40;;;18.50;48.20;;;;;;5046152;28;20955;-53
2022/11/04 12:55:41;;;;;;;5.40;1.60;;;18.60;48.30;;;;;;5048430;28;20447;-51
2022/11/04 12:58:39;;;;;;;3.17;1.30;;;18.60;48.50;;;;;;5047645;28;21019;-54
2022/11/04 13:01:21;;;;;;;3.90;2.00;;;18.70;48.20;;;;;;5028093;28;20986;-51
2022/11/04 13:04:11;;;;;;;2.77;1.30;;;18.60;47.80;;;;;;5046646;28;20454;-52
2022/11/04 13:06:52;;;;;;;7.23;1.70;;;18.70;48.00;;;;;;5045326;28;20431;-54
2022/11/04 13:09:35;;;;;;;5.77;1.37;;;18.70;48.30;;;;;;5050595;28;21259;-53
2022/11/04 13:12:12;;;;;;;4.97;1.17;;;18.90;48.40;;;;;;5048885;28;20435;-52
2022/11/04 13:14:54;;;;;;;2.20;1.00;;;18.90;47.90;;;;;;5050484;28;20466;-54
2022/11/04 13:17:28;;;;;;;7.20;1.50;;;18.90;47.70;;;;;;5043299;28;20455;-53
2022/11/04 13:20:04;;;;;;;1.97;1.50;;;19.00;47.60;;;;;;5050425;28;20463;-53
2022/11/04 13:22:35;;;;;;;3.10;1.77;;;19.00;47.50;;;;;;5048552;28;20496;-52
2022/11/04 13:25:08;;;;;;;3.50;1.20;;;19.10;47.80;;;;;;5049388;28;20485;-52
2022/11/04 13:27:40;;;;;;;3.97;1.53;;;19.10;48.40;;;;;;5048504;28;20443;-53
2022/11/04 13:30:20;;;;;;;3.37;1.80;;;19.00;47.70;;;;;;5044747;28;20525;-53
2022/11/04 13:33:16;;;;;;;3.50;1.50;;;18.90;47.90;;;;;;5047949;28;20447;-54
2022/11/04 13:35:50;;;;;;;1.40;1.17;;;18.90;47.50;;;;;;5021403;28;20443;-53
2022/11/04 13:38:21;;;;;;;3.53;1.50;;;18.90;47.80;;;;;;5045981;28;20508;-52
2022/11/04 13:41:14;;;;;;;3.00;1.20;;;18.90;47.60;;;;;;5041458;28;20545;-54
2022/11/04 13:43:48;;;;;;;3.10;1.63;;;19.00;47.60;;;;;;5046441;28;20984;-53
2022/11/04 13:46:18;;;;;;;3.00;1.43;;;19.10;47.30;;;;;;5047656;28;20439;-53